Newport, RI (02840)

12:06 PM EDT on July 26, 2016 (GMT -0400)
Lower Thames Street | | Change Station
Active Advisory: Special Statement Active Notice: Record Report

Elev 20 ft 41.48 °N, 71.31 °W | Updated 15 seconds ago

Clear
Clear
85.1 °F
Feels Like 82 °F
N
8.1
Wind Variable Wind from West
Gusts 9.8 mph

Today
High -- | Low -- °F
--% Chance of Precip.
Yesterday
High -- | Low -- °F
Precip. -- in
Pressure 29.82 in
Visibility 10.0 miles
Clouds Clear
Heat Index 82 °F
Dew Point 41 °F
Humidity 21%
Rainfall 0.00 in
Snow Depth Not available.
5:34 AM 8:08 PM
Waning Gibbous, 53% visible
METAR KUUU 261553Z AUTO 29011KT 10SM CLR 30/18 A2983 RMK AO2 SLP098 T03000183
Pressure 29.82 in
Visibility 10.0 miles
Clouds Clear
Heat Index 82 °F
Dew Point 41 °F
Humidity 21%
Rainfall 0.00 in
Snow Depth Not available.
5:34 AM 8:08 PM
Waning Gibbous, 53% visible
METAR KUUU 261553Z AUTO 29011KT 10SM CLR 30/18 A2983 RMK AO2 SLP098 T03000183

10-Day Weather Forecast

Almanac

Astronomy

Jul. 26, 2016 Rise Set
Actual Time
Civil Twilight
Nautical Twilight
Astronomical Twilight
Moon
Length of Visible Light
Length of Day
Tomorrow will be .
, % of the Moon is Illuminated

Today's Extremes

State Highs State Lows

Community

WunderPhotos

Upload Photos

1,927,625 photos uploaded!

WunderBlog® & News

Nearby

Air Quality

  Air Quality AQ Index Pollutant
Not available.

Snow Depth

Station Depth Elevation

Earthquake Activity

City Distance Mag. Time & Date
Minimum magnitude displayed is 2.5.

Coastal Water Temperatures

Place Temperature

Stations

Nearby Weather Stations

Station Location Temp. Windchill Dew Point Humidity Wind Precip. Elev Updated Type
                   

Watches & Warnings

Special Statement
Issued: 7:27 AM EDT Jul. 26, 2016 – National Weather Service

... Elevated fire weather potential today and Wednesday...

Dry weather is expected today and Wednesday with minimum relative
humidity values near 30 percent. In addition... west winds will
gust around 20 mph around midday and the afternoon. These factors
combined with a lack of recent widespread rainfall will create an
elevated fire weather potential in interior sections of
Massachusetts... Rhode Island and Connecticut.


Dunten

727 am EDT Tue Jul 26 2016

... Elevated fire weather potential today and Wednesday...

Dry weather is expected today and Wednesday with minimum relative
humidity values near 30 percent. In addition... west winds will
gust around 20 mph around midday and the afternoon. These factors
combined with a lack of recent widespread rainfall will create an
elevated fire weather potential in interior sections of
Massachusetts... Rhode Island and Connecticut.


Dunten